sensor_id;sensor_type;location;lat;lon;timestamp;P1;durP1;ratioP1;P2;durP2;ratioP2
53879;SDS011;39791;53.184;5.486;2023-02-16T00:03:44;57.60;;;37.05;;
53879;SDS011;39791;53.184;5.486;2023-02-16T00:06:09;59.30;;;39.22;;
53879;SDS011;39791;53.184;5.486;2023-02-16T00:08:39;49.65;;;32.22;;
53879;SDS011;39791;53.184;5.486;2023-02-16T00:11:14;57.05;;;37.13;;
53879;SDS011;39791;53.184;5.486;2023-02-16T00:14:06;60.40;;;39.00;;
53879;SDS011;39791;53.184;5.486;2023-02-16T00:16:34;57.33;;;36.78;;
53879;SDS011;39791;53.184;5.486;2023-02-16T00:19:00;53.97;;;35.20;;
53879;SDS011;39791;53.184;5.486;2023-02-16T00:21:26;57.10;;;35.28;;
53879;SDS011;39791;53.184;5.486;2023-02-16T00:23:52;56.60;;;38.58;;
53879;SDS011;39791;53.184;5.486;2023-02-16T00:26:20;62.00;;;39.63;;
53879;SDS011;39791;53.184;5.486;2023-02-16T00:28:48;61.72;;;42.97;;
53879;SDS011;39791;53.184;5.486;2023-02-16T00:31:20;65.10;;;43.40;;
53879;SDS011;39791;53.184;5.486;2023-02-16T00:33:55;62.45;;;42.90;;
53879;SDS011;39791;53.184;5.486;2023-02-16T00:36:22;63.33;;;43.40;;
53879;SDS011;39791;53.184;5.486;2023-02-16T00:38:48;64.68;;;44.72;;
53879;SDS011;39791;53.184;5.486;2023-02-16T00:41:14;66.18;;;42.17;;
53879;SDS011;39791;53.184;5.486;2023-02-16T00:44:14;63.03;;;41.80;;
53879;SDS011;39791;53.184;5.486;2023-02-16T00:46:42;63.38;;;43.53;;
53879;SDS011;39791;53.184;5.486;2023-02-16T00:49:12;68.18;;;44.97;;
53879;SDS011;39791;53.184;5.486;2023-02-16T00:51:38;68.30;;;43.85;;
53879;SDS011;39791;53.184;5.486;2023-02-16T00:54:04;67.43;;;47.17;;
53879;SDS011;39791;53.184;5.486;2023-02-16T00:56:30;74.10;;;46.92;;
53879;SDS011;39791;53.184;5.486;2023-02-16T00:58:57;77.13;;;45.85;;
53879;SDS011;39791;53.184;5.486;2023-02-16T01:01:25;72.50;;;46.63;;
53879;SDS011;39791;53.184;5.486;2023-02-16T01:03:55;69.93;;;45.75;;
53879;SDS011;39791;53.184;5.486;2023-02-16T01:06:22;74.85;;;44.33;;
53879;SDS011;39791;53.184;5.486;2023-02-16T01:09:13;75.65;;;47.38;;
53879;SDS011;39791;53.184;5.486;2023-02-16T01:12:00;77.20;;;50.20;;
53879;SDS011;39791;53.184;5.486;2023-02-16T01:14:28;78.65;;;50.83;;
53879;SDS011;39791;53.184;5.486;2023-02-16T01:16:56;71.63;;;48.42;;
53879;SDS011;39791;53.184;5.486;2023-02-16T01:19:22;70.90;;;44.38;;
53879;SDS011;39791;53.184;5.486;2023-02-16T01:21:48;71.35;;;44.95;;
53879;SDS011;39791;53.184;5.486;2023-02-16T01:24:13;71.93;;;44.00;;
53879;SDS011;39791;53.184;5.486;2023-02-16T01:26:40;74.28;;;46.95;;
53879;SDS011;39791;53.184;5.486;2023-02-16T01:29:12;70.55;;;44.10;;
53879;SDS011;39791;53.184;5.486;2023-02-16T01:31:40;77.43;;;49.13;;
53879;SDS011;39791;53.184;5.486;2023-02-16T01:34:06;76.15;;;49.05;;
53879;SDS011;39791;53.184;5.486;2023-02-16T01:36:41;80.68;;;49.08;;
53879;SDS011;39791;53.184;5.486;2023-02-16T01:39:10;67.50;;;44.97;;
53879;SDS011;39791;53.184;5.486;2023-02-16T01:44:19;67.93;;;41.97;;
53879;SDS011;39791;53.184;5.486;2023-02-16T01:46:50;72.53;;;48.33;;
53879;SDS011;39791;53.184;5.486;2023-02-16T01:49:22;75.25;;;50.28;;
53879;SDS011;39791;53.184;5.486;2023-02-16T01:51:55;81.45;;;51.45;;
53879;SDS011;39791;53.184;5.486;2023-02-16T01:56:49;70.13;;;45.95;;
53879;SDS011;39791;53.184;5.486;2023-02-16T02:02:03;72.72;;;45.05;;
53879;SDS011;39791;53.184;5.486;2023-02-16T02:04:56;65.55;;;43.88;;
53879;SDS011;39791;53.184;5.486;2023-02-16T02:07:44;73.70;;;47.42;;
53879;SDS011;39791;53.184;5.486;2023-02-16T02:12:58;74.13;;;48.33;;
53879;SDS011;39791;53.184;5.486;2023-02-16T02:15:31;76.40;;;48.30;;
53879;SDS011;39791;53.184;5.486;2023-02-16T02:17:58;59.08;;;37.30;;
53879;SDS011;39791;53.184;5.486;2023-02-16T02:21:13;73.50;;;44.97;;
53879;SDS011;39791;53.184;5.486;2023-02-16T02:24:03;73.93;;;46.83;;
53879;SDS011;39791;53.184;5.486;2023-02-16T02:29:45;74.93;;;47.45;;
53879;SDS011;39791;53.184;5.486;2023-02-16T02:43:20;72.40;;;46.35;;
53879;SDS011;39791;53.184;5.486;2023-02-16T02:45:55;75.22;;;48.47;;
53879;SDS011;39791;53.184;5.486;2023-02-16T02:48:33;76.53;;;49.08;;
53879;SDS011;39791;53.184;5.486;2023-02-16T02:51:00;73.57;;;48.88;;
53879;SDS011;39791;53.184;5.486;2023-02-16T02:53:53;73.45;;;49.45;;
53879;SDS011;39791;53.184;5.486;2023-02-16T02:56:58;68.45;;;44.67;;
53879;SDS011;39791;53.184;5.486;2023-02-16T02:59:47;62.25;;;44.75;;
53879;SDS011;39791;53.184;5.486;2023-02-16T03:02:52;70.88;;;45.13;;
53879;SDS011;39791;53.184;5.486;2023-02-16T03:05:23;68.25;;;43.83;;
53879;SDS011;39791;53.184;5.486;2023-02-16T03:07:54;75.90;;;48.22;;
53879;SDS011;39791;53.184;5.486;2023-02-16T03:10:38;74.10;;;47.50;;
53879;SDS011;39791;53.184;5.486;2023-02-16T03:13:29;75.32;;;47.20;;
53879;SDS011;39791;53.184;5.486;2023-02-16T03:16:00;74.47;;;46.22;;
53879;SDS011;39791;53.184;5.486;2023-02-16T03:18:30;66.60;;;42.28;;
53879;SDS011;39791;53.184;5.486;2023-02-16T03:21:18;57.42;;;38.40;;
53879;SDS011;39791;53.184;5.486;2023-02-16T03:24:03;65.95;;;41.15;;
53879;SDS011;39791;53.184;5.486;2023-02-16T03:26:51;63.28;;;39.08;;
53879;SDS011;39791;53.184;5.486;2023-02-16T03:29:38;63.85;;;39.30;;
53879;SDS011;39791;53.184;5.486;2023-02-16T03:32:03;61.60;;;40.35;;
53879;SDS011;39791;53.184;5.486;2023-02-16T03:34:30;67.88;;;37.85;;
53879;SDS011;39791;53.184;5.486;2023-02-16T03:36:58;62.50;;;41.50;;
53879;SDS011;39791;53.184;5.486;2023-02-16T03:39:27;67.10;;;44.10;;
53879;SDS011;39791;53.184;5.486;2023-02-16T03:41:55;63.17;;;42.88;;
53879;SDS011;39791;53.184;5.486;2023-02-16T03:44:22;68.88;;;44.05;;
53879;SDS011;39791;53.184;5.486;2023-02-16T03:46:48;69.53;;;44.90;;
53879;SDS011;39791;53.184;5.486;2023-02-16T03:49:15;58.53;;;41.33;;
53879;SDS011;39791;53.184;5.486;2023-02-16T03:51:44;58.83;;;38.20;;
53879;SDS011;39791;53.184;5.486;2023-02-16T03:54:10;63.85;;;37.00;;
53879;SDS011;39791;53.184;5.486;2023-02-16T03:56:36;66.07;;;38.63;;
53879;SDS011;39791;53.184;5.486;2023-02-16T03:59:01;54.40;;;37.63;;
53879;SDS011;39791;53.184;5.486;2023-02-16T04:01:27;59.80;;;36.63;;
53879;SDS011;39791;53.184;5.486;2023-02-16T04:03:53;65.88;;;35.67;;
53879;SDS011;39791;53.184;5.486;2023-02-16T04:06:18;56.40;;;35.15;;
53879;SDS011;39791;53.184;5.486;2023-02-16T04:08:44;59.15;;;37.08;;
53879;SDS011;39791;53.184;5.486;2023-02-16T04:11:10;52.60;;;33.58;;
53879;SDS011;39791;53.184;5.486;2023-02-16T04:13:54;46.85;;;29.20;;
53879;SDS011;39791;53.184;5.486;2023-02-16T04:16:19;61.38;;;33.95;;
53879;SDS011;39791;53.184;5.486;2023-02-16T04:18:45;53.30;;;35.22;;
53879;SDS011;39791;53.184;5.486;2023-02-16T04:21:10;57.60;;;36.55;;
53879;SDS011;39791;53.184;5.486;2023-02-16T04:23:36;61.08;;;37.83;;
53879;SDS011;39791;53.184;5.486;2023-02-16T04:26:02;66.18;;;39.20;;
53879;SDS011;39791;53.184;5.486;2023-02-16T04:28:27;57.42;;;37.95;;
53879;SDS011;39791;53.184;5.486;2023-02-16T04:30:54;61.85;;;37.60;;
53879;SDS011;39791;53.184;5.486;2023-02-16T04:33:20;63.30;;;37.78;;
53879;SDS011;39791;53.184;5.486;2023-02-16T04:35:45;55.55;;;35.60;;
53879;SDS011;39791;53.184;5.486;2023-02-16T04:38:11;66.78;;;37.55;;
53879;SDS011;39791;53.184;5.486;2023-02-16T04:40:36;62.85;;;37.03;;
53879;SDS011;39791;53.184;5.486;2023-02-16T04:43:02;62.45;;;37.08;;
53879;SDS011;39791;53.184;5.486;2023-02-16T04:45:27;64.30;;;37.53;;
53879;SDS011;39791;53.184;5.486;2023-02-16T04:47:53;66.15;;;37.03;;
53879;SDS011;39791;53.184;5.486;2023-02-16T04:50:18;60.08;;;39.35;;
53879;SDS011;39791;53.184;5.486;2023-02-16T04:52:44;67.47;;;40.47;;
53879;SDS011;39791;53.184;5.486;2023-02-16T04:55:10;62.95;;;36.88;;
53879;SDS011;39791;53.184;5.486;2023-02-16T04:57:36;56.30;;;33.53;;
53879;SDS011;39791;53.184;5.486;2023-02-16T05:00:03;60.10;;;36.70;;
53879;SDS011;39791;53.184;5.486;2023-02-16T05:02:32;59.33;;;37.95;;
53879;SDS011;39791;53.184;5.486;2023-02-16T05:04:58;60.67;;;37.95;;
53879;SDS011;39791;53.184;5.486;2023-02-16T05:07:23;66.05;;;37.85;;
53879;SDS011;39791;53.184;5.486;2023-02-16T05:09:49;62.28;;;37.25;;
53879;SDS011;39791;53.184;5.486;2023-02-16T05:12:15;58.35;;;38.13;;
53879;SDS011;39791;53.184;5.486;2023-02-16T05:14:59;58.78;;;38.58;;
53879;SDS011;39791;53.184;5.486;2023-02-16T05:17:25;65.93;;;39.00;;
53879;SDS011;39791;53.184;5.486;2023-02-16T05:19:54;70.18;;;39.75;;
53879;SDS011;39791;53.184;5.486;2023-02-16T05:22:22;66.28;;;39.00;;
53879;SDS011;39791;53.184;5.486;2023-02-16T05:24:48;72.57;;;39.63;;
53879;SDS011;39791;53.184;5.486;2023-02-16T05:27:18;68.90;;;39.80;;
53879;SDS011;39791;53.184;5.486;2023-02-16T05:29:46;76.70;;;43.35;;
53879;SDS011;39791;53.184;5.486;2023-02-16T05:32:12;60.45;;;37.45;;
53879;SDS011;39791;53.184;5.486;2023-02-16T05:34:38;72.90;;;41.38;;
53879;SDS011;39791;53.184;5.486;2023-02-16T05:37:04;78.07;;;42.22;;
53879;SDS011;39791;53.184;5.486;2023-02-16T05:39:30;64.65;;;38.97;;
53879;SDS011;39791;53.184;5.486;2023-02-16T05:41:55;68.85;;;40.15;;
53879;SDS011;39791;53.184;5.486;2023-02-16T05:44:21;74.75;;;41.05;;
53879;SDS011;39791;53.184;5.486;2023-02-16T05:46:46;73.28;;;39.22;;
53879;SDS011;39791;53.184;5.486;2023-02-16T05:49:13;70.22;;;42.28;;
53879;SDS011;39791;53.184;5.486;2023-02-16T05:51:39;68.28;;;41.83;;
53879;SDS011;39791;53.184;5.486;2023-02-16T05:54:06;62.53;;;36.45;;
53879;SDS011;39791;53.184;5.486;2023-02-16T05:56:31;73.25;;;43.83;;
53879;SDS011;39791;53.184;5.486;2023-02-16T05:58:58;60.58;;;36.42;;
53879;SDS011;39791;53.184;5.486;2023-02-16T06:01:24;70.38;;;38.90;;
53879;SDS011;39791;53.184;5.486;2023-02-16T06:03:51;72.78;;;41.55;;
53879;SDS011;39791;53.184;5.486;2023-02-16T06:06:17;74.03;;;40.60;;
53879;SDS011;39791;53.184;5.486;2023-02-16T06:08:43;83.10;;;44.58;;
53879;SDS011;39791;53.184;5.486;2023-02-16T06:11:09;78.40;;;43.28;;
53879;SDS011;39791;53.184;5.486;2023-02-16T06:13:53;74.05;;;43.97;;
53879;SDS011;39791;53.184;5.486;2023-02-16T06:16:27;75.13;;;43.05;;
53879;SDS011;39791;53.184;5.486;2023-02-16T06:18:53;74.68;;;44.65;;
53879;SDS011;39791;53.184;5.486;2023-02-16T06:21:19;75.78;;;44.60;;
53879;SDS011;39791;53.184;5.486;2023-02-16T06:23:46;83.90;;;47.35;;
53879;SDS011;39791;53.184;5.486;2023-02-16T06:26:11;88.53;;;46.83;;
53879;SDS011;39791;53.184;5.486;2023-02-16T06:28:37;71.43;;;42.85;;
53879;SDS011;39791;53.184;5.486;2023-02-16T06:31:03;78.18;;;44.70;;
53879;SDS011;39791;53.184;5.486;2023-02-16T06:33:28;70.97;;;43.58;;
53879;SDS011;39791;53.184;5.486;2023-02-16T06:35:54;75.72;;;45.28;;
53879;SDS011;39791;53.184;5.486;2023-02-16T06:38:19;93.78;;;47.25;;
53879;SDS011;39791;53.184;5.486;2023-02-16T06:40:45;74.30;;;42.75;;
53879;SDS011;39791;53.184;5.486;2023-02-16T06:43:10;84.65;;;47.60;;
53879;SDS011;39791;53.184;5.486;2023-02-16T06:45:36;90.80;;;49.63;;
53879;SDS011;39791;53.184;5.486;2023-02-16T06:48:02;78.47;;;47.22;;
53879;SDS011;39791;53.184;5.486;2023-02-16T06:50:27;88.18;;;48.70;;
53879;SDS011;39791;53.184;5.486;2023-02-16T06:52:53;85.35;;;47.65;;
53879;SDS011;39791;53.184;5.486;2023-02-16T06:55:19;83.40;;;48.53;;
53879;SDS011;39791;53.184;5.486;2023-02-16T06:57:44;80.93;;;48.55;;
53879;SDS011;39791;53.184;5.486;2023-02-16T07:00:10;92.10;;;49.97;;
53879;SDS011;39791;53.184;5.486;2023-02-16T07:02:36;94.25;;;50.05;;
53879;SDS011;39791;53.184;5.486;2023-02-16T07:05:02;93.18;;;53.45;;
53879;SDS011;39791;53.184;5.486;2023-02-16T07:07:27;89.65;;;49.95;;
53879;SDS011;39791;53.184;5.486;2023-02-16T07:09:53;73.82;;;44.30;;
53879;SDS011;39791;53.184;5.486;2023-02-16T07:12:19;79.38;;;46.95;;
53879;SDS011;39791;53.184;5.486;2023-02-16T07:14:44;98.68;;;51.95;;
53879;SDS011;39791;53.184;5.486;2023-02-16T07:17:10;95.38;;;54.25;;
53879;SDS011;39791;53.184;5.486;2023-02-16T07:19:35;98.50;;;54.15;;
53879;SDS011;39791;53.184;5.486;2023-02-16T07:22:02;98.28;;;54.72;;
53879;SDS011;39791;53.184;5.486;2023-02-16T07:24:29;88.30;;;53.88;;
53879;SDS011;39791;53.184;5.486;2023-02-16T07:26:55;109.70;;;54.40;;
53879;SDS011;39791;53.184;5.486;2023-02-16T07:29:20;97.18;;;51.00;;
53879;SDS011;39791;53.184;5.486;2023-02-16T07:31:46;95.03;;;53.15;;
53879;SDS011;39791;53.184;5.486;2023-02-16T07:34:12;79.10;;;45.55;;
53879;SDS011;39791;53.184;5.486;2023-02-16T07:36:37;99.70;;;52.92;;
53879;SDS011;39791;53.184;5.486;2023-02-16T07:39:03;92.80;;;49.35;;
53879;SDS011;39791;53.184;5.486;2023-02-16T07:41:28;103.07;;;55.28;;
53879;SDS011;39791;53.184;5.486;2023-02-16T07:43:54;79.68;;;43.22;;
53879;SDS011;39791;53.184;5.486;2023-02-16T07:46:19;78.13;;;43.72;;
53879;SDS011;39791;53.184;5.486;2023-02-16T07:48:46;98.95;;;50.75;;
53879;SDS011;39791;53.184;5.486;2023-02-16T07:51:12;97.97;;;51.00;;
53879;SDS011;39791;53.184;5.486;2023-02-16T07:53:49;98.78;;;51.35;;
53879;SDS011;39791;53.184;5.486;2023-02-16T07:56:25;98.63;;;50.63;;
53879;SDS011;39791;53.184;5.486;2023-02-16T07:58:52;89.28;;;45.90;;
53879;SDS011;39791;53.184;5.486;2023-02-16T08:01:19;88.85;;;47.67;;
53879;SDS011;39791;53.184;5.486;2023-02-16T08:03:46;97.90;;;49.95;;
53879;SDS011;39791;53.184;5.486;2023-02-16T08:06:11;94.43;;;48.75;;
53879;SDS011;39791;53.184;5.486;2023-02-16T08:08:37;98.50;;;48.22;;
53879;SDS011;39791;53.184;5.486;2023-02-16T08:11:07;97.55;;;47.70;;
53879;SDS011;39791;53.184;5.486;2023-02-16T08:13:37;95.07;;;45.10;;
53879;SDS011;39791;53.184;5.486;2023-02-16T08:16:13;99.40;;;47.00;;
53879;SDS011;39791;53.184;5.486;2023-02-16T08:18:43;93.18;;;46.63;;
53879;SDS011;39791;53.184;5.486;2023-02-16T08:21:14;88.90;;;43.83;;
53879;SDS011;39791;53.184;5.486;2023-02-16T08:23:44;94.18;;;45.05;;
53879;SDS011;39791;53.184;5.486;2023-02-16T08:26:12;91.55;;;46.65;;
53879;SDS011;39791;53.184;5.486;2023-02-16T08:28:42;86.10;;;43.28;;
53879;SDS011;39791;53.184;5.486;2023-02-16T08:31:15;88.10;;;43.13;;
53879;SDS011;39791;53.184;5.486;2023-02-16T08:33:43;94.10;;;44.40;;
53879;SDS011;39791;53.184;5.486;2023-02-16T08:36:19;95.35;;;46.47;;
53879;SDS011;39791;53.184;5.486;2023-02-16T08:38:47;87.97;;;42.65;;
53879;SDS011;39791;53.184;5.486;2023-02-16T08:41:15;89.53;;;40.58;;
53879;SDS011;39791;53.184;5.486;2023-02-16T08:43:41;77.82;;;39.45;;
53879;SDS011;39791;53.184;5.486;2023-02-16T08:46:07;76.38;;;38.03;;
53879;SDS011;39791;53.184;5.486;2023-02-16T08:48:33;71.78;;;35.13;;
53879;SDS011;39791;53.184;5.486;2023-02-16T08:51:00;79.03;;;39.15;;
53879;SDS011;39791;53.184;5.486;2023-02-16T08:53:26;86.78;;;42.25;;
53879;SDS011;39791;53.184;5.486;2023-02-16T08:55:56;86.18;;;44.85;;
53879;SDS011;39791;53.184;5.486;2023-02-16T08:58:22;74.10;;;35.97;;
53879;SDS011;39791;53.184;5.486;2023-02-16T09:00:48;90.55;;;45.20;;
53879;SDS011;39791;53.184;5.486;2023-02-16T09:03:15;81.72;;;40.15;;
53879;SDS011;39791;53.184;5.486;2023-02-16T09:05:43;79.80;;;40.72;;
53879;SDS011;39791;53.184;5.486;2023-02-16T09:08:13;80.88;;;36.40;;
53879;SDS011;39791;53.184;5.486;2023-02-16T09:10:40;64.97;;;34.97;;
53879;SDS011;39791;53.184;5.486;2023-02-16T09:13:06;85.15;;;42.20;;
53879;SDS011;39791;53.184;5.486;2023-02-16T09:15:35;80.88;;;42.38;;
53879;SDS011;39791;53.184;5.486;2023-02-16T09:18:01;85.80;;;42.13;;
53879;SDS011;39791;53.184;5.486;2023-02-16T09:20:27;70.45;;;36.28;;
53879;SDS011;39791;53.184;5.486;2023-02-16T09:22:53;85.80;;;41.42;;
53879;SDS011;39791;53.184;5.486;2023-02-16T09:25:19;75.70;;;37.05;;
53879;SDS011;39791;53.184;5.486;2023-02-16T09:27:45;84.50;;;42.75;;
53879;SDS011;39791;53.184;5.486;2023-02-16T09:30:12;77.85;;;41.50;;
53879;SDS011;39791;53.184;5.486;2023-02-16T09:32:37;75.80;;;41.35;;
53879;SDS011;39791;53.184;5.486;2023-02-16T09:35:04;80.32;;;43.10;;
53879;SDS011;39791;53.184;5.486;2023-02-16T09:37:31;84.22;;;42.53;;
53879;SDS011;39791;53.184;5.486;2023-02-16T09:39:56;73.93;;;38.95;;
53879;SDS011;39791;53.184;5.486;2023-02-16T09:42:25;81.63;;;42.63;;
53879;SDS011;39791;53.184;5.486;2023-02-16T09:45:14;93.38;;;47.55;;
53879;SDS011;39791;53.184;5.486;2023-02-16T09:47:45;89.90;;;45.85;;
53879;SDS011;39791;53.184;5.486;2023-02-16T09:52:48;85.70;;;46.13;;
53879;SDS011;39791;53.184;5.486;2023-02-16T09:55:21;91.97;;;49.55;;
53879;SDS011;39791;53.184;5.486;2023-02-16T10:03:14;94.93;;;48.33;;
53879;SDS011;39791;53.184;5.486;2023-02-16T10:08:24;88.00;;;46.20;;
53879;SDS011;39791;53.184;5.486;2023-02-16T10:16:04;69.53;;;40.15;;
53879;SDS011;39791;53.184;5.486;2023-02-16T10:18:36;77.85;;;42.05;;
53879;SDS011;39791;53.184;5.486;2023-02-16T10:21:07;89.30;;;49.40;;
53879;SDS011;39791;53.184;5.486;2023-02-16T10:23:41;78.13;;;39.83;;
53879;SDS011;39791;53.184;5.486;2023-02-16T10:28:54;86.28;;;42.40;;
53879;SDS011;39791;53.184;5.486;2023-02-16T10:31:42;81.05;;;44.50;;
53879;SDS011;39791;53.184;5.486;2023-02-16T10:34:38;70.25;;;42.05;;
53879;SDS011;39791;53.184;5.486;2023-02-16T10:42:47;84.75;;;43.83;;
53879;SDS011;39791;53.184;5.486;2023-02-16T10:45:40;75.65;;;42.08;;
53879;SDS011;39791;53.184;5.486;2023-02-16T10:48:21;68.85;;;37.58;;
53879;SDS011;39791;53.184;5.486;2023-02-16T10:53:39;75.72;;;40.33;;
53879;SDS011;39791;53.184;5.486;2023-02-16T10:59:00;76.32;;;38.13;;
53879;SDS011;39791;53.184;5.486;2023-02-16T11:01:34;74.65;;;41.28;;
53879;SDS011;39791;53.184;5.486;2023-02-16T11:04:07;74.63;;;41.78;;
53879;SDS011;39791;53.184;5.486;2023-02-16T11:06:34;65.28;;;37.28;;
53879;SDS011;39791;53.184;5.486;2023-02-16T11:09:00;73.30;;;38.75;;
53879;SDS011;39791;53.184;5.486;2023-02-16T11:11:29;74.35;;;40.53;;
53879;SDS011;39791;53.184;5.486;2023-02-16T11:14:04;64.82;;;35.53;;
53879;SDS011;39791;53.184;5.486;2023-02-16T11:16:31;59.40;;;33.75;;
53879;SDS011;39791;53.184;5.486;2023-02-16T11:19:12;64.55;;;38.15;;
53879;SDS011;39791;53.184;5.486;2023-02-16T11:21:51;61.78;;;33.58;;
53879;SDS011;39791;53.184;5.486;2023-02-16T11:24:36;58.15;;;33.78;;
53879;SDS011;39791;53.184;5.486;2023-02-16T11:29:30;52.50;;;29.67;;
53879;SDS011;39791;53.184;5.486;2023-02-16T11:31:55;61.78;;;37.40;;
53879;SDS011;39791;53.184;5.486;2023-02-16T11:34:27;71.50;;;42.03;;
53879;SDS011;39791;53.184;5.486;2023-02-16T11:37:01;67.28;;;41.20;;
53879;SDS011;39791;53.184;5.486;2023-02-16T11:39:36;67.80;;;44.20;;
53879;SDS011;39791;53.184;5.486;2023-02-16T11:42:05;81.25;;;43.53;;
53879;SDS011;39791;53.184;5.486;2023-02-16T11:44:51;68.80;;;41.75;;
53879;SDS011;39791;53.184;5.486;2023-02-16T11:49:46;74.35;;;42.63;;
53879;SDS011;39791;53.184;5.486;2023-02-16T11:54:48;62.67;;;37.92;;
53879;SDS011;39791;53.184;5.486;2023-02-16T11:57:38;64.03;;;39.88;;
53879;SDS011;39791;53.184;5.486;2023-02-16T12:00:13;63.08;;;38.35;;
53879;SDS011;39791;53.184;5.486;2023-02-16T12:05:17;64.95;;;42.03;;
53879;SDS011;39791;53.184;5.486;2023-02-16T12:08:02;76.43;;;45.80;;
53879;SDS011;39791;53.184;5.486;2023-02-16T12:13:38;74.10;;;42.15;;
53879;SDS011;39791;53.184;5.486;2023-02-16T12:16:29;55.40;;;33.97;;
53879;SDS011;39791;53.184;5.486;2023-02-16T12:19:04;62.85;;;37.28;;
53879;SDS011;39791;53.184;5.486;2023-02-16T12:21:42;63.40;;;35.65;;
53879;SDS011;39791;53.184;5.486;2023-02-16T12:26:58;57.10;;;30.27;;
53879;SDS011;39791;53.184;5.486;2023-02-16T12:35:07;55.88;;;35.92;;
53879;SDS011;39791;53.184;5.486;2023-02-16T12:40:41;46.72;;;28.58;;
53879;SDS011;39791;53.184;5.486;2023-02-16T12:43:34;54.95;;;32.95;;
53879;SDS011;39791;53.184;5.486;2023-02-16T12:49:39;57.15;;;37.92;;
53879;SDS011;39791;53.184;5.486;2023-02-16T12:52:00;58.33;;;38.35;;
53879;SDS011;39791;53.184;5.486;2023-02-16T12:54:44;67.23;;;39.23;;
53879;SDS011;39791;53.184;5.486;2023-02-16T12:57:16;60.33;;;37.30;;
53879;SDS011;39791;53.184;5.486;2023-02-16T13:02:55;61.80;;;39.00;;
53879;SDS011;39791;53.184;5.486;2023-02-16T13:05:25;59.65;;;37.55;;
53879;SDS011;39791;53.184;5.486;2023-02-16T13:07:58;71.57;;;42.67;;
53879;SDS011;39791;53.184;5.486;2023-02-16T13:10:39;64.68;;;42.05;;
53879;SDS011;39791;53.184;5.486;2023-02-16T13:13:11;65.15;;;40.03;;
53879;SDS011;39791;53.184;5.486;2023-02-16T13:15:43;58.33;;;38.53;;
53879;SDS011;39791;53.184;5.486;2023-02-16T13:20:50;61.38;;;40.90;;
53879;SDS011;39791;53.184;5.486;2023-02-16T13:26:16;59.45;;;41.65;;
53879;SDS011;39791;53.184;5.486;2023-02-16T13:32:19;70.13;;;49.08;;
53879;SDS011;39791;53.184;5.486;2023-02-16T13:43:41;61.13;;;39.35;;
53879;SDS011;39791;53.184;5.486;2023-02-16T13:46:29;55.05;;;37.42;;
53879;SDS011;39791;53.184;5.486;2023-02-16T13:48:56;66.45;;;47.70;;
53879;SDS011;39791;53.184;5.486;2023-02-16T13:51:25;61.88;;;39.75;;
53879;SDS011;39791;53.184;5.486;2023-02-16T13:53:58;59.05;;;39.75;;
53879;SDS011;39791;53.184;5.486;2023-02-16T13:58:59;65.20;;;46.50;;
53879;SDS011;39791;53.184;5.486;2023-02-16T14:01:40;60.92;;;44.95;;
53879;SDS011;39791;53.184;5.486;2023-02-16T14:07:18;66.47;;;45.45;;
53879;SDS011;39791;53.184;5.486;2023-02-16T14:20:30;76.88;;;50.83;;
53879;SDS011;39791;53.184;5.486;2023-02-16T14:22:53;71.55;;;49.30;;
53879;SDS011;39791;53.184;5.486;2023-02-16T14:28:04;69.30;;;48.30;;
53879;SDS011;39791;53.184;5.486;2023-02-16T14:30:51;76.38;;;49.65;;
53879;SDS011;39791;53.184;5.486;2023-02-16T14:33:20;70.68;;;50.50;;
53879;SDS011;39791;53.184;5.486;2023-02-16T14:36:04;69.43;;;48.85;;
53879;SDS011;39791;53.184;5.486;2023-02-16T14:38:43;67.50;;;48.35;;
53879;SDS011;39791;53.184;5.486;2023-02-16T14:43:50;87.90;;;58.63;;
53879;SDS011;39791;53.184;5.486;2023-02-16T14:52:29;89.18;;;58.70;;
53879;SDS011;39791;53.184;5.486;2023-02-16T15:00:28;81.53;;;50.10;;
53879;SDS011;39791;53.184;5.486;2023-02-16T15:03:17;84.13;;;49.88;;
53879;SDS011;39791;53.184;5.486;2023-02-16T15:08:22;63.20;;;43.47;;
53879;SDS011;39791;53.184;5.486;2023-02-16T15:11:00;75.13;;;44.15;;
53879;SDS011;39791;53.184;5.486;2023-02-16T15:13:47;60.83;;;38.50;;
53879;SDS011;39791;53.184;5.486;2023-02-16T15:16:17;57.58;;;37.35;;
53879;SDS011;39791;53.184;5.486;2023-02-16T15:18:46;51.95;;;34.53;;
53879;SDS011;39791;53.184;5.486;2023-02-16T15:21:17;52.85;;;35.45;;
53879;SDS011;39791;53.184;5.486;2023-02-16T15:23:51;63.95;;;37.50;;
53879;SDS011;39791;53.184;5.486;2023-02-16T15:26:19;48.65;;;29.88;;
53879;SDS011;39791;53.184;5.486;2023-02-16T15:28:54;40.47;;;27.35;;
53879;SDS011;39791;53.184;5.486;2023-02-16T15:31:29;31.17;;;22.00;;
53879;SDS011;39791;53.184;5.486;2023-02-16T15:33:57;35.75;;;22.30;;
53879;SDS011;39791;53.184;5.486;2023-02-16T15:36:32;41.03;;;26.55;;
53879;SDS011;39791;53.184;5.486;2023-02-16T15:39:04;30.45;;;22.00;;
53879;SDS011;39791;53.184;5.486;2023-02-16T15:41:38;29.55;;;21.20;;
53879;SDS011;39791;53.184;5.486;2023-02-16T15:44:29;29.25;;;18.90;;
53879;SDS011;39791;53.184;5.486;2023-02-16T15:49:47;22.65;;;16.33;;
53879;SDS011;39791;53.184;5.486;2023-02-16T15:52:15;26.90;;;18.70;;
53879;SDS011;39791;53.184;5.486;2023-02-16T15:54:44;28.15;;;19.63;;
53879;SDS011;39791;53.184;5.486;2023-02-16T15:59:58;25.35;;;17.95;;
53879;SDS011;39791;53.184;5.486;2023-02-16T16:02:32;21.27;;;15.50;;
53879;SDS011;39791;53.184;5.486;2023-02-16T16:05:01;19.63;;;15.77;;
53879;SDS011;39791;53.184;5.486;2023-02-16T16:07:33;21.38;;;15.18;;
53879;SDS011;39791;53.184;5.486;2023-02-16T16:10:07;21.30;;;15.05;;
53879;SDS011;39791;53.184;5.486;2023-02-16T16:12:44;20.00;;;14.70;;
53879;SDS011;39791;53.184;5.486;2023-02-16T16:15:16;20.35;;;14.55;;
53879;SDS011;39791;53.184;5.486;2023-02-16T16:17:47;18.75;;;14.52;;
53879;SDS011;39791;53.184;5.486;2023-02-16T16:20:24;22.00;;;16.10;;
53879;SDS011;39791;53.184;5.486;2023-02-16T16:23:05;22.90;;;16.02;;
53879;SDS011;39791;53.184;5.486;2023-02-16T16:27:59;21.25;;;16.25;;
53879;SDS011;39791;53.184;5.486;2023-02-16T16:30:27;24.38;;;16.05;;
53879;SDS011;39791;53.184;5.486;2023-02-16T16:33:02;26.20;;;16.55;;
53879;SDS011;39791;53.184;5.486;2023-02-16T16:35:36;22.80;;;16.00;;
53879;SDS011;39791;53.184;5.486;2023-02-16T16:38:20;20.15;;;15.68;;
53879;SDS011;39791;53.184;5.486;2023-02-16T16:40:56;21.98;;;16.05;;
53879;SDS011;39791;53.184;5.486;2023-02-16T16:43:25;19.65;;;14.85;;
53879;SDS011;39791;53.184;5.486;2023-02-16T16:46:17;23.77;;;15.75;;
53879;SDS011;39791;53.184;5.486;2023-02-16T16:48:48;19.95;;;15.23;;
53879;SDS011;39791;53.184;5.486;2023-02-16T16:51:20;23.70;;;16.95;;
53879;SDS011;39791;53.184;5.486;2023-02-16T16:54:05;20.90;;;15.13;;
53879;SDS011;39791;53.184;5.486;2023-02-16T16:56:35;18.50;;;15.25;;
53879;SDS011;39791;53.184;5.486;2023-02-16T16:59:03;18.38;;;14.27;;
53879;SDS011;39791;53.184;5.486;2023-02-16T17:01:29;16.92;;;12.43;;
53879;SDS011;39791;53.184;5.486;2023-02-16T17:03:56;19.85;;;14.55;;
53879;SDS011;39791;53.184;5.486;2023-02-16T17:06:22;18.52;;;14.82;;
53879;SDS011;39791;53.184;5.486;2023-02-16T17:08:48;18.15;;;13.80;;
53879;SDS011;39791;53.184;5.486;2023-02-16T17:11:24;17.95;;;13.68;;
53879;SDS011;39791;53.184;5.486;2023-02-16T17:13:55;16.02;;;14.23;;